Terminal Aerodrome Forecast
Issued by NWS Charleston, WV

Current Version | Previous Version | Text Only | Print | Product List | Glossary Off
Versions: 1 2 3 4 5 6 7 8 9 10 11 12 13 14 15 16 17 18 19 20 21

000
FTUS41 KRLX 281100
TAFBKW
TAF
KBKW 281137Z 2812/2912 03003KT 6SM BR SCT025
      TEMPO 2812/2814 BKN012 BKN025
     FM281400 36004KT P6SM BKN013
      TEMPO 2814/2817 BKN025
     FM281700 33005KT P6SM SCT035=

USA.gov is the U.S. government's official web portal to all federal, state and local government web resources and services.